Terminal Aerodrome Forecast
Issued by NWS

Home | Current Version | Previous Version | Text Only | Print | Product List | Glossary On
Versions: 1 2 3 4 5 6 7 8 9 10 11 12 13 14 15 16 17
000
FTUS43 KGRB 300525
TAFMTW
TAF
KMTW 300525Z 3006/0106 06012G24KT P6SM -SHRA OVC040
     FM301000 04014G25KT P6SM -SHRA SCT015 OVC030
     FM301300 04015G27KT 5SM -SHRA OVC015
     FM301600 04014G28KT 3SM -RA BR OVC006
     FM302300 05012G24KT 2SM -RA BR OVC004=

USA.gov is the U.S. government's official web portal to all federal, state and local government web resources and services.